Time;durP1;ratioP1;P1;durP2;ratioP2;P2;SDS_P1;SDS_P2;PMS_P1;PMS_P2;Temp;Humidity;BMP_temperature;BMP_pressure;BME280_temperature;BME280_humidity;BME280_pressure;Samples;Min_cycle;Max_cycle;Signal;HPM_P1;HPM_P2
2023/04/14 00:01:16;;;;;;;46.15;41.15;;;30.60;83.20;;;;;;1827677;77;21191;-80
2023/04/14 00:03:50;;;;;;;44.93;39.27;;;30.60;83.20;;;;;;1831191;78;21123;-80
2023/04/14 00:06:21;;;;;;;46.18;41.05;;;30.60;83.20;;;;;;1831577;77;22029;-80
2023/04/14 00:08:53;;;;;;;48.25;40.98;;;30.60;83.00;;;;;;1830977;78;21628;-79
2023/04/14 00:11:24;;;;;;;47.40;42.30;;;30.60;83.10;;;;;;1830706;78;21138;-80
2023/04/14 00:13:56;;;;;;;52.90;41.60;;;30.60;83.20;;;;;;1829061;78;21654;-81
2023/04/14 00:16:27;;;;;;;49.42;41.88;;;30.70;82.70;;;;;;1777310;80;21092;-81
2023/04/14 00:18:58;;;;;;;49.98;42.58;;;30.70;82.60;;;;;;1756807;81;22058;-81
2023/04/14 00:21:30;;;;;;;48.78;43.23;;;30.80;82.90;;;;;;1770904;79;21241;-81
2023/04/14 00:24:01;;;;;;;47.25;42.08;;;30.80;82.70;;;;;;1777519;79;21244;-81
2023/04/14 00:26:32;;;;;;;47.23;42.10;;;30.80;82.30;;;;;;1786566;79;21161;-83
2023/04/14 00:29:03;;;;;;;47.48;42.27;;;30.80;82.50;;;;;;1776624;80;21143;-81
2023/04/14 00:31:34;;;;;;;48.87;43.55;;;30.80;82.60;;;;;;1782081;80;21140;-81
2023/04/14 00:34:06;;;;;;;49.55;44.18;;;30.80;82.60;;;;;;1757776;80;21669;-81
2023/04/14 00:36:37;;;;;;;49.15;43.78;;;30.80;82.70;;;;;;1758937;81;21170;-82
2023/04/14 00:39:08;;;;;;;55.52;45.17;;;30.80;82.70;;;;;;1782126;80;21151;-81
2023/04/14 00:41:39;;;;;;;53.17;44.67;;;30.80;82.70;;;;;;1751648;81;21806;-82
2023/04/14 00:44:10;;;;;;;51.10;43.80;;;30.80;82.70;;;;;;1780858;80;21148;-81
2023/04/14 00:46:42;;;;;;;48.13;42.95;;;30.80;82.60;;;;;;1778417;80;21188;-80
2023/04/14 00:49:13;;;;;;;52.70;45.67;;;30.80;82.30;;;;;;1754013;80;21631;-80
2023/04/14 00:51:46;;;;;;;49.45;44.15;;;30.90;82.20;;;;;;1779899;80;21114;-81
2023/04/14 00:54:19;;;;;;;48.60;43.38;;;30.90;82.30;;;;;;1827556;78;21209;-79
2023/04/14 00:56:51;;;;;;;54.05;44.30;;;30.90;82.20;;;;;;1829453;78;21145;-81
2023/04/14 00:59:22;;;;;;;50.63;45.12;;;30.90;81.90;;;;;;1829068;78;21126;-80
2023/04/14 01:01:53;;;;;;;51.20;45.12;;;31.10;82.10;;;;;;1822816;78;21618;-81
2023/04/14 01:04:26;;;;;;;50.15;44.75;;;31.10;81.70;;;;;;1828961;78;21162;-80
2023/04/14 01:06:58;;;;;;;49.67;43.75;;;31.10;81.80;;;;;;1829580;78;21516;-81
2023/04/14 01:09:30;;;;;;;56.55;46.48;;;31.10;81.40;;;;;;1827686;78;21273;-81
2023/04/14 01:12:15;;;;;;;50.85;45.43;;;31.20;81.30;;;;;;1824246;78;21209;-81
2023/04/14 01:14:49;;;;;;;50.92;45.40;;;31.20;80.90;;;;;;1829618;78;21732;-80
2023/04/14 01:17:28;;;;;;;50.30;44.63;;;31.20;80.30;;;;;;1829290;78;21557;-80
2023/04/14 01:20:11;;;;;;;56.70;46.73;;;31.30;81.60;;;;;;1827940;78;21667;-80
2023/04/14 01:23:09;;;;;;;53.52;44.63;;;31.40;80.60;;;;;;1827279;78;21509;-81
2023/04/14 01:26:11;;;;;;;50.95;44.63;;;31.40;80.60;;;;;;1815814;78;21622;-80
2023/04/14 01:28:57;;;;;;;51.80;45.65;;;31.40;80.00;;;;;;1782294;80;21233;-81
2023/04/14 01:31:31;;;;;;;50.90;44.83;;;31.40;79.60;;;;;;1818433;78;21080;-80
2023/04/14 01:34:17;;;;;;;54.48;45.10;;;31.50;78.80;;;;;;1821095;78;21201;-80
2023/04/14 01:37:03;;;;;;;51.33;45.45;;;31.60;78.70;;;;;;1817855;78;21151;-81
2023/04/14 01:39:48;;;;;;;52.40;44.75;;;31.60;79.00;;;;;;1810012;77;21071;-81
2023/04/14 01:42:21;;;;;;;51.02;45.65;;;31.60;78.80;;;;;;1820761;78;21068;-82
2023/04/14 01:44:55;;;;;;;51.77;44.30;;;31.70;78.70;;;;;;1822536;78;21213;-81
2023/04/14 01:47:28;;;;;;;49.42;44.10;;;31.80;78.40;;;;;;1771774;80;21115;-82
2023/04/14 01:50:01;;;;;;;48.90;43.75;;;31.80;77.70;;;;;;1762777;80;21939;-82
2023/04/14 01:52:33;;;;;;;49.58;44.25;;;31.90;77.90;;;;;;1781931;80;21150;-82
2023/04/14 01:55:08;;;;;;;46.48;41.75;;;31.90;77.60;;;;;;1754989;80;21105;-82
2023/04/14 01:57:40;;;;;;;51.35;45.28;;;32.00;77.40;;;;;;1825794;78;21146;-82
2023/04/14 02:00:13;;;;;;;54.03;44.88;;;32.00;77.20;;;;;;1820282;78;21092;-82
2023/04/14 02:02:45;;;;;;;51.10;44.08;;;32.10;76.90;;;;;;1823467;78;21681;-82
2023/04/14 02:05:20;;;;;;;49.60;44.13;;;32.10;76.80;;;;;;1765214;80;21162;-82
2023/04/14 02:07:53;;;;;;;51.35;44.18;;;32.10;76.90;;;;;;1822825;78;21104;-80
2023/04/14 02:10:24;;;;;;;52.83;45.95;;;32.20;76.70;;;;;;1776524;80;21180;-81
2023/04/14 02:12:57;;;;;;;53.30;44.53;;;32.20;76.50;;;;;;1779723;80;21167;-81
2023/04/14 02:15:30;;;;;;;52.88;45.48;;;32.30;76.10;;;;;;1778168;80;22015;-80
2023/04/14 02:18:03;;;;;;;49.35;43.25;;;32.40;76.10;;;;;;1776726;80;21098;-82
2023/04/14 02:20:37;;;;;;;54.38;45.95;;;32.40;75.90;;;;;;1771509;80;21139;-82
2023/04/14 02:23:08;;;;;;;50.58;44.58;;;32.50;75.40;;;;;;1822423;77;21605;-81
2023/04/14 02:25:41;;;;;;;52.53;46.02;;;32.50;75.00;;;;;;1780691;79;21166;-82
2023/04/14 02:28:15;;;;;;;50.23;44.50;;;32.60;74.80;;;;;;1777931;80;21170;-80
2023/04/14 02:30:49;;;;;;;49.70;43.87;;;32.60;74.50;;;;;;1771920;80;21618;-81
2023/04/14 02:33:25;;;;;;;52.17;45.67;;;32.60;73.60;;;;;;1743523;80;21205;-81
2023/04/14 02:36:05;;;;;;;48.73;43.63;;;32.70;74.40;;;;;;1750144;82;21242;-80
2023/04/14 02:38:41;;;;;;;46.05;41.35;;;32.70;73.80;;;;;;1815701;77;21168;-81
2023/04/14 02:41:14;;;;;;;49.15;43.92;;;32.80;73.80;;;;;;1829204;77;21123;-81
2023/04/14 02:43:48;;;;;;;53.87;46.05;;;32.80;72.70;;;;;;1780401;79;21210;-80
2023/04/14 02:46:21;;;;;;;49.15;43.80;;;32.90;73.00;;;;;;1781056;80;21233;-81
2023/04/14 02:48:54;;;;;;;49.95;44.20;;;33.00;72.40;;;;;;1751521;82;21188;-80
2023/04/14 02:51:26;;;;;;;48.42;43.48;;;33.00;72.10;;;;;;1827646;77;21191;-82
2023/04/14 02:53:57;;;;;;;51.08;45.52;;;33.10;72.00;;;;;;1826641;77;21668;-81
2023/04/14 02:56:29;;;;;;;47.90;42.55;;;33.10;72.20;;;;;;1829861;77;21156;-82
2023/04/14 02:59:01;;;;;;;46.68;41.90;;;33.20;72.30;;;;;;1825620;77;21131;-82
2023/04/14 03:01:33;;;;;;;48.83;43.52;;;33.30;72.00;;;;;;1828962;78;21596;-81
2023/04/14 03:04:05;;;;;;;47.70;42.38;;;33.30;71.10;;;;;;1820905;78;21201;-82
2023/04/14 03:06:38;;;;;;;48.40;43.17;;;33.30;70.90;;;;;;1829400;77;21101;-81
2023/04/14 03:09:09;;;;;;;49.35;43.30;;;33.30;70.90;;;;;;1828213;78;21199;-81
2023/04/14 03:11:42;;;;;;;46.13;41.15;;;33.30;70.90;;;;;;1829324;78;21164;-81
2023/04/14 03:14:14;;;;;;;55.55;43.98;;;33.30;70.40;;;;;;1835061;77;21150;-82
2023/04/14 03:16:46;;;;;;;48.42;42.60;;;33.40;69.60;;;;;;1777798;80;21171;-81
2023/04/14 03:19:19;;;;;;;46.85;41.50;;;33.50;70.00;;;;;;1777416;80;21674;-80
2023/04/14 03:21:54;;;;;;;48.20;42.93;;;33.60;70.40;;;;;;1782008;79;21462;-80
2023/04/14 03:24:29;;;;;;;47.20;42.13;;;33.70;70.00;;;;;;1771235;79;21218;-82
2023/04/14 03:27:01;;;;;;;46.63;41.90;;;33.90;69.40;;;;;;1762368;80;21147;-82
2023/04/14 03:29:34;;;;;;;47.27;42.23;;;34.00;69.20;;;;;;1755807;80;21230;-81
2023/04/14 03:32:07;;;;;;;46.23;41.50;;;34.10;68.50;;;;;;1782346;79;21215;-82
2023/04/14 03:34:40;;;;;;;46.83;41.80;;;34.30;67.60;;;;;;1752678;80;21213;-82
2023/04/14 03:37:13;;;;;;;46.18;41.13;;;34.40;66.20;;;;;;1780272;79;21641;-81
2023/04/14 03:39:44;;;;;;;45.50;40.67;;;34.40;65.80;;;;;;1751958;81;21572;-81
2023/04/14 03:42:21;;;;;;;47.25;41.90;;;34.40;66.40;;;;;;1782342;80;21577;-81
2023/04/14 03:45:02;;;;;;;47.45;42.40;;;34.60;66.10;;;;;;1767572;80;22343;-81
2023/04/14 03:47:33;;;;;;;44.48;39.83;;;34.70;65.80;;;;;;1752253;80;21255;-80
2023/04/14 03:50:08;;;;;;;47.38;42.50;;;34.70;64.00;;;;;;1766865;80;21636;-81
2023/04/14 03:52:40;;;;;;;47.60;42.60;;;34.80;64.20;;;;;;1783382;80;21240;-82
2023/04/14 03:55:13;;;;;;;46.95;42.05;;;34.80;64.50;;;;;;1742194;82;21561;-81
2023/04/14 03:57:45;;;;;;;45.23;40.50;;;34.80;63.70;;;;;;1783102;80;21079;-82
2023/04/14 04:00:18;;;;;;;49.63;41.45;;;34.90;64.40;;;;;;1753285;81;21163;-82
2023/04/14 04:02:49;;;;;;;46.40;41.68;;;35.00;64.10;;;;;;1750413;81;21224;-82
2023/04/14 04:05:22;;;;;;;43.17;38.67;;;35.00;64.10;;;;;;1738113;82;21214;-82
2023/04/14 04:07:54;;;;;;;43.65;39.15;;;35.10;61.90;;;;;;1759840;81;21201;-82
2023/04/14 04:10:25;;;;;;;48.42;41.28;;;35.20;61.40;;;;;;1732598;81;21677;-82
2023/04/14 04:12:57;;;;;;;43.63;38.98;;;35.20;61.30;;;;;;1781654;80;21168;-81
2023/04/14 04:15:37;;;;;;;49.65;42.93;;;35.20;61.70;;;;;;1780776;80;21683;-81
2023/04/14 04:18:12;;;;;;;44.33;39.70;;;35.30;61.30;;;;;;1751592;82;21167;-81
2023/04/14 04:20:40;;;;;;;45.40;40.67;;;35.30;60.90;;;;;;1779863;80;21102;-82
2023/04/14 04:23:18;;;;;;;44.18;39.45;;;35.30;60.10;;;;;;1752091;80;21166;-81
2023/04/14 04:25:46;;;;;;;45.80;40.98;;;35.30;60.60;;;;;;1766324;81;21451;-82
2023/04/14 04:28:18;;;;;;;46.70;41.65;;;35.30;60.60;;;;;;1772293;79;21632;-80
2023/04/14 04:30:50;;;;;;;47.98;43.05;;;35.30;60.50;;;;;;1825247;78;21146;-81
2023/04/14 04:33:22;;;;;;;43.58;38.95;;;35.40;60.30;;;;;;1823173;78;21134;-81
2023/04/14 04:35:56;;;;;;;42.15;37.95;;;35.50;59.60;;;;;;1841189;77;21126;-81
2023/04/14 04:38:27;;;;;;;43.17;39.05;;;35.50;59.20;;;;;;1786879;79;21092;-81
2023/04/14 04:40:58;;;;;;;44.93;40.20;;;35.50;59.60;;;;;;1785263;80;21231;-81
2023/04/14 04:43:30;;;;;;;43.45;39.08;;;35.60;58.60;;;;;;1824253;78;21621;-82
2023/04/14 04:46:12;;;;;;;47.62;42.62;;;35.70;59.30;;;;;;1814713;78;21650;-81
2023/04/14 04:48:43;;;;;;;46.35;41.50;;;35.80;59.50;;;;;;1778691;81;21770;-81
2023/04/14 04:51:17;;;;;;;47.38;40.70;;;35.90;58.50;;;;;;1819978;78;21158;-81
2023/04/14 04:53:46;;;;;;;43.92;39.10;;;36.00;57.50;;;;;;1788177;80;21130;-81
2023/04/14 04:56:18;;;;;;;44.35;39.67;;;36.20;57.50;;;;;;1757619;80;21151;-81
2023/04/14 04:58:50;;;;;;;48.42;39.25;;;36.20;56.40;;;;;;1781840;80;21256;-81
2023/04/14 05:01:22;;;;;;;43.98;39.27;;;36.30;56.90;;;;;;1809309;78;21664;-81
2023/04/14 05:03:53;;;;;;;47.15;42.38;;;36.30;55.50;;;;;;1827386;78;21221;-82
2023/04/14 05:06:25;;;;;;;44.48;39.80;;;36.40;55.80;;;;;;1828709;78;21100;-82
2023/04/14 05:08:56;;;;;;;45.12;40.48;;;36.40;56.10;;;;;;1828832;77;21257;-81
2023/04/14 05:11:28;;;;;;;43.45;38.78;;;36.30;56.20;;;;;;1833495;78;21638;-81
2023/04/14 05:13:59;;;;;;;44.40;39.90;;;36.30;56.40;;;;;;1827771;78;21091;-81
2023/04/14 05:16:32;;;;;;;50.28;44.77;;;36.30;56.40;;;;;;1821615;78;21192;-80
2023/04/14 05:19:04;;;;;;;46.37;41.45;;;36.40;56.00;;;;;;1827582;78;21215;-81
2023/04/14 05:21:35;;;;;;;45.52;40.90;;;36.50;54.90;;;;;;1827181;78;21193;-80
2023/04/14 05:24:07;;;;;;;43.83;39.42;;;36.50;54.20;;;;;;1827933;78;21099;-81
2023/04/14 05:26:38;;;;;;;44.40;39.75;;;36.50;54.10;;;;;;1828122;77;21089;-81
2023/04/14 05:29:11;;;;;;;43.42;39.13;;;36.50;54.40;;;;;;1821878;78;21137;-80
2023/04/14 05:31:42;;;;;;;47.15;42.10;;;36.60;55.00;;;;;;1820600;78;21093;-81
2023/04/14 05:34:14;;;;;;;43.80;39.35;;;36.60;53.00;;;;;;1825393;78;21196;-81
2023/04/14 05:36:45;;;;;;;43.70;39.08;;;36.60;53.10;;;;;;1783632;80;21092;-81
2023/04/14 05:39:16;;;;;;;41.55;37.35;;;36.60;53.60;;;;;;1780962;80;21225;-81
2023/04/14 05:41:47;;;;;;;47.70;41.75;;;36.60;53.80;;;;;;1781440;80;21147;-81
2023/04/14 05:44:18;;;;;;;46.18;41.53;;;36.60;53.50;;;;;;1780004;80;21170;-81
2023/04/14 05:46:49;;;;;;;53.63;40.30;;;36.70;54.20;;;;;;1754146;82;21163;-81
2023/04/14 05:49:21;;;;;;;44.35;39.75;;;36.70;53.40;;;;;;1773033;79;21776;-80
2023/04/14 05:51:53;;;;;;;45.88;41.08;;;36.60;52.90;;;;;;1749967;82;21256;-81
2023/04/14 05:54:24;;;;;;;42.90;38.35;;;36.70;53.20;;;;;;1774066;80;21152;-81
2023/04/14 05:56:56;;;;;;;44.13;39.45;;;36.70;53.00;;;;;;1751102;82;21443;-81
2023/04/14 05:59:27;;;;;;;42.60;38.00;;;36.70;53.20;;;;;;1741064;82;21092;-81
2023/04/14 06:02:01;;;;;;;50.78;40.67;;;36.80;53.20;;;;;;1780069;80;21203;-81
2023/04/14 06:04:31;;;;;;;42.15;37.03;;;36.80;53.40;;;;;;1743454;80;21643;-81
2023/04/14 06:07:02;;;;;;;41.53;37.25;;;36.80;53.50;;;;;;1791070;79;21190;-81
2023/04/14 06:09:33;;;;;;;41.00;36.80;;;36.90;52.80;;;;;;1740194;81;21721;-82
2023/04/14 06:12:05;;;;;;;40.60;36.40;;;36.80;53.20;;;;;;1823980;78;21076;-82
2023/04/14 06:14:36;;;;;;;42.88;38.42;;;36.80;53.30;;;;;;1775565;80;21134;-81
2023/04/14 06:17:07;;;;;;;43.65;39.03;;;36.80;52.60;;;;;;1776166;80;21119;-81
2023/04/14 06:19:38;;;;;;;44.18;39.73;;;36.80;53.00;;;;;;1824142;78;21233;-82
2023/04/14 06:22:09;;;;;;;45.60;40.92;;;36.80;52.50;;;;;;1820076;78;21167;-80
2023/04/14 06:24:41;;;;;;;44.18;39.67;;;36.80;53.00;;;;;;1773513;80;21548;-81
2023/04/14 06:27:12;;;;;;;43.63;38.80;;;36.80;52.90;;;;;;1769761;79;21604;-82
2023/04/14 06:29:43;;;;;;;43.70;38.98;;;36.80;52.60;;;;;;1823890;78;21190;-80
2023/04/14 06:32:14;;;;;;;40.98;36.88;;;36.80;52.20;;;;;;1773685;80;21626;-81
2023/04/14 06:34:51;;;;;;;44.55;40.00;;;36.80;52.80;;;;;;1745772;82;21187;-82
2023/04/14 06:37:21;;;;;;;45.73;41.05;;;36.80;52.10;;;;;;1788264;79;21101;-81
2023/04/14 06:40:08;;;;;;;45.28;39.65;;;36.80;52.30;;;;;;1738222;82;21264;-82
2023/04/14 06:42:42;;;;;;;47.73;42.50;;;36.80;51.90;;;;;;1735959;80;21287;-81
2023/04/14 06:45:22;;;;;;;39.55;35.75;;;36.80;52.20;;;;;;1747012;80;21158;-80
2023/04/14 06:47:54;;;;;;;39.98;36.13;;;36.80;51.20;;;;;;1744760;80;21200;-82
2023/04/14 06:50:29;;;;;;;41.58;36.53;;;36.80;50.80;;;;;;1769278;79;21918;-81
2023/04/14 06:53:00;;;;;;;42.30;37.78;;;36.80;50.60;;;;;;1782437;79;21119;-82
2023/04/14 06:55:35;;;;;;;45.65;41.15;;;36.80;50.00;;;;;;1821654;78;21655;-82
2023/04/14 06:58:07;;;;;;;42.17;37.70;;;36.80;50.80;;;;;;1821807;78;21099;-82
2023/04/14 07:00:38;;;;;;;42.75;37.60;;;36.80;50.50;;;;;;1767031;80;21147;-82
2023/04/14 07:03:16;;;;;;;43.48;37.20;;;36.80;51.10;;;;;;1821163;77;21151;-81
2023/04/14 07:05:45;;;;;;;46.18;37.88;;;36.90;50.50;;;;;;1816447;78;21633;-80
2023/04/14 07:11:01;;;;;;;;;;;36.90;49.70;;;;;;1819487;78;21674;-80
2023/04/14 07:13:33;;;;;;;41.88;37.40;;;37.00;50.70;;;;;;1801563;78;20202;-81
2023/04/14 07:16:08;;;;;;;41.15;36.70;;;37.00;49.80;;;;;;1821883;78;21119;-82
2023/04/14 07:18:41;;;;;;;47.60;42.40;;;37.00;49.70;;;;;;1825207;77;21122;-82
2023/04/14 07:21:11;;;;;;;42.80;38.50;;;37.00;50.30;;;;;;1771432;80;21155;-81
2023/04/14 07:23:42;;;;;;;46.13;39.08;;;37.00;50.00;;;;;;1781101;80;21195;-81
2023/04/14 07:26:14;;;;;;;40.12;36.15;;;37.10;49.90;;;;;;1767696;79;21073;-82
2023/04/14 07:28:46;;;;;;;41.40;36.90;;;37.10;49.80;;;;;;1742942;82;21230;-81
2023/04/14 07:31:17;;;;;;;41.70;37.48;;;37.10;49.90;;;;;;1774350;79;21148;-82
2023/04/14 07:33:48;;;;;;;42.40;37.23;;;37.10;49.40;;;;;;1820868;78;21147;-81
2023/04/14 07:36:19;;;;;;;39.42;35.63;;;37.20;49.30;;;;;;1780238;80;21137;-82
2023/04/14 07:38:50;;;;;;;42.65;38.05;;;37.20;49.70;;;;;;1752058;81;21674;-81
2023/04/14 07:41:22;;;;;;;40.50;36.35;;;37.10;50.00;;;;;;1752296;82;21678;-81
2023/04/14 07:43:58;;;;;;;41.65;37.42;;;37.10;49.90;;;;;;1749072;82;21244;-81
2023/04/14 07:46:25;;;;;;;42.62;38.50;;;37.10;50.00;;;;;;1828606;77;21155;-82
2023/04/14 07:48:56;;;;;;;46.70;41.70;;;37.20;49.60;;;;;;1828700;78;21240;-82
2023/04/14 07:51:27;;;;;;;43.92;39.27;;;37.20;50.20;;;;;;1822561;78;21645;-81
2023/04/14 07:53:59;;;;;;;41.77;37.58;;;37.30;50.00;;;;;;1826298;78;21181;-79
2023/04/14 07:56:31;;;;;;;43.70;38.17;;;37.30;49.70;;;;;;1826275;77;21147;-82
2023/04/14 07:59:02;;;;;;;41.37;37.35;;;37.30;50.30;;;;;;1818520;78;21595;-82
2023/04/14 08:01:33;;;;;;;43.17;38.85;;;37.30;49.80;;;;;;1825822;78;21140;-82
2023/04/14 08:04:04;;;;;;;42.40;38.10;;;37.30;50.00;;;;;;1827747;78;21155;-82
2023/04/14 08:06:36;;;;;;;43.00;38.48;;;37.30;50.30;;;;;;1782128;80;21111;-80
2023/04/14 08:09:07;;;;;;;43.10;38.63;;;37.30;49.60;;;;;;1819642;77;21115;-82
2023/04/14 08:11:38;;;;;;;45.83;40.98;;;37.30;50.20;;;;;;1822670;78;21251;-81
2023/04/14 08:14:10;;;;;;;42.65;38.40;;;37.30;49.70;;;;;;1822100;78;21091;-81
2023/04/14 08:16:41;;;;;;;46.28;41.40;;;37.30;49.80;;;;;;1821226;77;21598;-82
2023/04/14 08:19:12;;;;;;;47.90;42.73;;;37.30;50.20;;;;;;1779253;80;21144;-82
2023/04/14 08:21:43;;;;;;;45.73;40.85;;;37.30;50.40;;;;;;1779015;80;21146;-81
2023/04/14 08:24:14;;;;;;;42.53;38.05;;;37.40;49.70;;;;;;1781748;80;21137;-80
2023/04/14 08:26:45;;;;;;;46.60;41.55;;;37.30;49.90;;;;;;1752232;82;21587;-80
2023/04/14 08:29:16;;;;;;;45.10;40.50;;;37.30;50.10;;;;;;1776615;80;21214;-82
2023/04/14 08:31:48;;;;;;;46.18;39.90;;;37.40;50.10;;;;;;1768640;79;21197;-81
2023/04/14 08:34:19;;;;;;;42.53;37.63;;;37.40;49.80;;;;;;1823377;77;21068;-81
2023/04/14 08:36:52;;;;;;;44.50;39.98;;;37.40;49.70;;;;;;1826589;78;21170;-82
2023/04/14 08:39:23;;;;;;;42.43;38.05;;;37.40;49.90;;;;;;1826351;78;21166;-82
2023/04/14 08:41:55;;;;;;;44.93;40.03;;;37.40;49.50;;;;;;1808631;78;21619;-81
2023/04/14 08:44:26;;;;;;;43.20;38.55;;;37.40;49.50;;;;;;1827808;77;21152;-81
2023/04/14 08:46:58;;;;;;;44.75;40.20;;;37.40;49.60;;;;;;1820238;78;21674;-82
2023/04/14 08:49:44;;;;;;;41.53;37.35;;;37.40;49.50;;;;;;1820272;78;21123;-81
2023/04/14 08:52:17;;;;;;;47.50;38.90;;;37.40;49.80;;;;;;1822298;77;21072;-82
2023/04/14 08:54:50;;;;;;;43.15;38.75;;;37.40;49.50;;;;;;1817439;78;21095;-80
2023/04/14 08:57:24;;;;;;;43.87;39.20;;;37.40;49.50;;;;;;1781572;79;21208;-81
2023/04/14 09:00:03;;;;;;;42.10;37.93;;;37.40;49.70;;;;;;1797438;79;21159;-82
2023/04/14 09:02:33;;;;;;;43.17;38.73;;;37.40;49.60;;;;;;1740336;80;21224;-82
2023/04/14 09:05:05;;;;;;;43.83;38.65;;;37.40;49.70;;;;;;1821649;78;21209;-82
2023/04/14 09:07:37;;;;;;;43.02;38.80;;;37.40;49.60;;;;;;1824330;78;21111;-81
2023/04/14 09:10:10;;;;;;;43.92;37.08;;;37.40;49.60;;;;;;1824497;78;21135;-83
2023/04/14 09:12:42;;;;;;;45.15;40.70;;;37.40;49.60;;;;;;1822365;78;21765;-81
2023/04/14 09:15:15;;;;;;;51.28;41.10;;;37.40;50.10;;;;;;1820781;78;21135;-81
2023/04/14 09:17:46;;;;;;;41.85;37.65;;;37.30;50.10;;;;;;1772933;80;21173;-81
2023/04/14 09:20:17;;;;;;;41.00;36.63;;;37.30;48.80;;;;;;1774235;80;21182;-81
2023/04/14 09:22:50;;;;;;;43.78;39.15;;;37.30;49.30;;;;;;1767749;80;21633;-80
2023/04/14 09:25:22;;;;;;;45.48;40.67;;;37.30;49.80;;;;;;1820198;77;21135;-82
2023/04/14 09:27:53;;;;;;;41.98;37.53;;;37.30;49.70;;;;;;1824328;78;21131;-82
2023/04/14 09:30:24;;;;;;;39.65;35.73;;;37.30;49.50;;;;;;1768064;80;21190;-82
2023/04/14 09:32:56;;;;;;;40.80;36.70;;;37.20;49.20;;;;;;1823524;77;21227;-82
2023/04/14 09:35:35;;;;;;;40.25;36.25;;;37.20;49.50;;;;;;1823872;77;21471;-82
2023/04/14 09:38:07;;;;;;;42.35;37.95;;;37.10;49.40;;;;;;1812124;77;21134;-83
2023/04/14 09:40:40;;;;;;;44.33;38.63;;;37.10;49.30;;;;;;1782472;80;21680;-82
2023/04/14 09:43:25;;;;;;;42.70;38.05;;;37.10;49.60;;;;;;1826627;78;21143;-82
2023/04/14 09:45:57;;;;;;;43.13;38.53;;;37.10;49.70;;;;;;1826705;78;21205;-82
2023/04/14 09:48:28;;;;;;;44.05;39.42;;;37.10;49.70;;;;;;1822115;78;21229;-81
2023/04/14 09:51:08;;;;;;;43.05;38.70;;;37.10;49.90;;;;;;1801048;79;21147;-82
2023/04/14 09:53:40;;;;;;;47.80;42.70;;;37.10;49.40;;;;;;1782147;80;21545;-82
2023/04/14 09:56:12;;;;;;;41.53;37.63;;;37.20;50.30;;;;;;1786894;80;21226;-81
2023/04/14 09:58:45;;;;;;;40.67;36.68;;;37.10;49.90;;;;;;1780996;80;21147;-81
2023/04/14 10:01:17;;;;;;;47.50;39.67;;;37.10;49.70;;;;;;1776821;80;21600;-81
2023/04/14 10:03:49;;;;;;;41.88;37.45;;;37.00;49.40;;;;;;1763375;80;21172;-82
2023/04/14 10:06:22;;;;;;;46.23;41.20;;;37.00;50.50;;;;;;1747623;81;21349;-81
2023/04/14 10:08:55;;;;;;;44.93;39.58;;;37.00;49.60;;;;;;1780981;80;21236;-81
2023/04/14 10:11:36;;;;;;;42.58;38.20;;;37.00;50.10;;;;;;1766279;80;21249;-82
2023/04/14 10:14:04;;;;;;;43.05;38.58;;;36.90;50.30;;;;;;1772086;80;21654;-81
2023/04/14 10:16:36;;;;;;;42.90;38.50;;;36.90;49.90;;;;;;1790506;80;21125;-82
2023/04/14 10:19:07;;;;;;;44.20;39.33;;;36.90;50.40;;;;;;1823267;78;21171;-82
2023/04/14 10:21:38;;;;;;;43.48;37.73;;;36.80;50.70;;;;;;1825967;77;21145;-82
2023/04/14 10:24:10;;;;;;;42.45;37.83;;;36.80;50.90;;;;;;1826670;78;21152;-81
2023/04/14 10:26:45;;;;;;;42.00;37.53;;;36.80;51.80;;;;;;1828844;78;21151;-81
2023/04/14 10:29:13;;;;;;;43.55;38.88;;;36.70;52.60;;;;;;1822354;78;21088;-81
2023/04/14 10:31:47;;;;;;;42.05;37.60;;;36.60;52.90;;;;;;1828742;78;21237;-81
2023/04/14 10:34:19;;;;;;;44.30;39.70;;;36.60;53.10;;;;;;1826363;78;21224;-81
2023/04/14 10:36:50;;;;;;;42.88;38.33;;;36.50;53.10;;;;;;1826585;78;21715;-81
2023/04/14 10:39:25;;;;;;;43.17;37.90;;;36.50;53.40;;;;;;1817842;78;21134;-81
2023/04/14 10:41:57;;;;;;;41.53;37.17;;;36.40;53.70;;;;;;1829104;78;21885;-82
2023/04/14 10:44:33;;;;;;;42.23;37.98;;;36.40;53.90;;;;;;1814313;78;21202;-82
2023/04/14 10:47:06;;;;;;;41.85;37.53;;;36.30;54.20;;;;;;1828582;78;21140;-81
2023/04/14 10:49:43;;;;;;;41.73;37.20;;;36.30;54.00;;;;;;1818728;78;21164;-82
2023/04/14 10:52:18;;;;;;;42.53;38.13;;;36.30;54.10;;;;;;1826031;78;21336;-81
2023/04/14 10:54:59;;;;;;;42.55;38.13;;;36.20;54.20;;;;;;1829902;77;21517;-81
2023/04/14 10:57:29;;;;;;;42.90;38.60;;;36.20;54.40;;;;;;1778429;79;21520;-82
2023/04/14 11:00:00;;;;;;;43.38;38.67;;;36.10;54.50;;;;;;1777870;80;21144;-82
2023/04/14 11:02:35;;;;;;;41.40;36.98;;;36.10;54.80;;;;;;1781513;79;21096;-82
2023/04/14 11:05:10;;;;;;;42.00;37.90;;;36.10;54.60;;;;;;1771918;79;21153;-82
2023/04/14 11:07:57;;;;;;;43.35;38.88;;;36.10;54.60;;;;;;1774211;79;21231;-81
2023/04/14 11:10:33;;;;;;;43.20;38.67;;;36.00;54.60;;;;;;1751665;80;21266;-81
2023/04/14 11:13:10;;;;;;;52.70;47.30;;;36.00;54.80;;;;;;1754912;80;21178;-80
2023/04/14 11:15:49;;;;;;;45.55;40.80;;;35.90;54.80;;;;;;1749340;81;21204;-81
2023/04/14 11:18:44;;;;;;;43.20;38.50;;;35.90;55.00;;;;;;1822420;78;21606;-81
2023/04/14 11:21:16;;;;;;;43.78;39.05;;;35.90;55.10;;;;;;1825569;77;21159;-81
2023/04/14 11:23:48;;;;;;;44.95;39.88;;;35.90;55.30;;;;;;1830994;77;21279;-81
2023/04/14 11:26:21;;;;;;;42.78;38.48;;;35.90;55.50;;;;;;1818441;77;21209;-81
2023/04/14 11:28:53;;;;;;;45.10;40.35;;;35.80;55.60;;;;;;1824910;77;21251;-81
2023/04/14 11:31:26;;;;;;;43.80;39.05;;;35.80;55.50;;;;;;1815621;77;21155;-82
2023/04/14 11:33:57;;;;;;;43.98;39.25;;;35.80;55.60;;;;;;1822720;77;21137;-82
2023/04/14 11:36:31;;;;;;;43.13;38.50;;;35.80;55.80;;;;;;1780929;79;21213;-82
2023/04/14 11:39:05;;;;;;;46.37;41.55;;;35.70;55.60;;;;;;1760770;81;21260;-82
2023/04/14 11:41:37;;;;;;;44.30;39.53;;;35.80;55.90;;;;;;1765691;80;21678;-82
2023/04/14 11:44:08;;;;;;;42.30;38.00;;;35.70;55.80;;;;;;1811129;78;21429;-82
2023/04/14 11:46:40;;;;;;;43.02;38.05;;;35.70;55.90;;;;;;1822879;78;21216;-81
2023/04/14 11:49:11;;;;;;;45.60;40.03;;;35.70;55.90;;;;;;1826919;78;21087;-82
2023/04/14 11:51:43;;;;;;;42.48;38.28;;;35.70;56.00;;;;;;1831293;77;21228;-82
2023/04/14 11:54:14;;;;;;;45.60;40.73;;;35.70;56.00;;;;;;1824709;77;21709;-82
2023/04/14 11:56:45;;;;;;;44.83;40.12;;;35.70;56.10;;;;;;1821565;77;21498;-81
2023/04/14 11:59:16;;;;;;;43.73;39.30;;;35.60;56.10;;;;;;1816169;78;21180;-82
2023/04/14 12:01:50;;;;;;;47.50;40.78;;;35.60;56.10;;;;;;1820264;77;21190;-82
2023/04/14 12:04:22;;;;;;;44.53;39.55;;;35.60;56.10;;;;;;1813355;77;21136;-83
2023/04/14 12:06:53;;;;;;;44.03;38.80;;;35.60;56.10;;;;;;1823564;77;21157;-82
2023/04/14 12:09:30;;;;;;;45.55;39.45;;;35.60;56.10;;;;;;1827869;78;21249;-80
2023/04/14 12:12:03;;;;;;;46.18;41.48;;;35.60;56.30;;;;;;1825604;77;21151;-84
2023/04/14 12:14:35;;;;;;;47.17;38.67;;;35.60;56.20;;;;;;1826008;77;21189;-82
2023/04/14 12:17:06;;;;;;;53.83;40.98;;;35.60;56.30;;;;;;1832936;77;21100;-81
2023/04/14 12:19:38;;;;;;;48.48;39.33;;;35.50;56.20;;;;;;1819578;77;21630;-82
2023/04/14 12:22:09;;;;;;;44.15;38.88;;;35.50;56.20;;;;;;1820100;77;21158;-81
2023/04/14 12:24:42;;;;;;;43.65;39.03;;;35.50;56.20;;;;;;1817511;77;21537;-81
2023/04/14 12:27:13;;;;;;;42.88;38.48;;;35.50;57.20;;;;;;1779536;80;21162;-82
2023/04/14 12:29:46;;;;;;;45.23;38.88;;;35.40;56.40;;;;;;1832958;77;21229;-82
2023/04/14 12:32:20;;;;;;;45.73;40.80;;;35.40;56.40;;;;;;1825639;77;21567;-81
2023/04/14 12:34:56;;;;;;;48.08;40.38;;;35.40;56.50;;;;;;1827470;77;21151;-81
2023/04/14 12:37:28;;;;;;;45.45;39.85;;;35.40;56.60;;;;;;1830282;77;21658;-81
2023/04/14 12:40:00;;;;;;;47.93;39.88;;;35.40;56.80;;;;;;1832028;77;21193;-81
2023/04/14 12:42:49;;;;;;;44.85;40.10;;;35.40;56.90;;;;;;1818984;77;21086;-80
2023/04/14 12:45:23;;;;;;;44.95;39.60;;;35.40;56.90;;;;;;1829563;78;21122;-81
2023/04/14 12:47:56;;;;;;;45.25;39.63;;;35.40;57.10;;;;;;1848868;77;21599;-81
2023/04/14 12:50:31;;;;;;;46.63;38.95;;;35.30;57.10;;;;;;1824460;77;21147;-81
2023/04/14 12:53:06;;;;;;;45.15;40.40;;;35.30;57.10;;;;;;1828164;77;21606;-81
2023/04/14 12:56:10;;;;;;;46.60;41.20;;;35.30;57.20;;;;;;1811652;77;21091;-81
2023/04/14 12:58:48;;;;;;;49.95;42.13;;;35.20;57.30;;;;;;1823089;76;21111;-81
2023/04/14 13:01:21;;;;;;;47.23;42.08;;;35.20;57.50;;;;;;1824541;77;21167;-82